Time;durP1;ratioP1;P1;durP2;ratioP2;P2;SDS_P1;SDS_P2;PMS_P1;PMS_P2;Temp;Humidity;BMP_temperature;BMP_pressure;BME280_temperature;BME280_humidity;BME280_pressure;Samples;Min_cycle;Max_cycle;Signal;HPM_P1;HPM_P2
2022/03/08 00:01:38;;;;;;;13.65;6.10;;;;;;;-11.11;58.20;99414.63;4862158;29;20049;-79
2022/03/08 00:04:04;;;;;;;11.07;4.95;;;;;;;-10.98;58.14;99425.94;4862267;29;20574;-80
2022/03/08 00:06:30;;;;;;;9.50;5.28;;;;;;;-10.94;57.79;99417.34;4845880;29;20057;-80
2022/03/08 00:08:56;;;;;;;14.77;4.82;;;;;;;-10.94;57.64;99424.22;4845723;29;20430;-79
2022/03/08 00:11:22;;;;;;;9.88;5.03;;;;;;;-10.93;58.19;99424.25;4861767;29;20477;-80
2022/03/08 00:13:50;;;;;;;13.18;6.25;;;;;;;-10.94;57.61;99437.13;4862011;29;20108;-80
2022/03/08 00:16:17;;;;;;;16.48;7.90;;;;;;;-11.03;57.58;99433.63;4845718;29;20141;-80
2022/03/08 00:18:44;;;;;;;17.02;7.57;;;;;;;-11.01;57.96;99437.09;4816516;29;20049;-79
2022/03/08 00:21:13;;;;;;;24.83;8.23;;;;;;;-10.99;57.71;99426.75;4856682;29;20525;-81
2022/03/08 00:23:41;;;;;;;22.13;7.35;;;;;;;-10.98;57.94;99436.25;4856089;29;20064;-80
2022/03/08 00:26:07;;;;;;;17.27;7.15;;;;;;;-11.17;57.94;99414.56;4856280;29;20121;-81
2022/03/08 00:28:34;;;;;;;21.80;7.63;;;;;;;-10.98;58.24;99441.41;4871802;29;20566;-80
2022/03/08 00:31:01;;;;;;;23.10;6.85;;;;;;;-11.04;58.12;99442.22;4831901;29;20057;-81
2022/03/08 00:33:26;;;;;;;19.13;6.03;;;;;;;-10.97;58.42;99447.44;4846059;29;20110;-81
2022/03/08 00:35:54;;;;;;;15.68;6.03;;;;;;;-10.97;58.37;99452.59;4815030;29;20510;-80
2022/03/08 00:38:20;;;;;;;12.57;6.25;;;;;;;-10.93;58.44;99444.91;4829958;29;20526;-79
2022/03/08 00:40:46;;;;;;;14.45;6.30;;;;;;;-10.84;58.23;99446.66;4814717;29;20053;-81
2022/03/08 00:43:14;;;;;;;17.00;6.03;;;;;;;-10.85;58.30;99442.38;4838810;29;20080;-80
2022/03/08 00:45:41;;;;;;;18.23;7.03;;;;;;;-10.83;58.46;99457.03;4836024;29;20628;-80
2022/03/08 00:48:07;;;;;;;13.25;6.03;;;;;;;-10.68;58.55;99466.59;4827868;29;20049;-81
2022/03/08 00:50:34;;;;;;;14.63;5.80;;;;;;;-10.73;58.57;99457.94;4829864;29;20145;-81
2022/03/08 00:53:00;;;;;;;12.95;5.82;;;;;;;-10.76;58.61;99463.06;4821801;29;20053;-79
2022/03/08 00:55:29;;;;;;;11.43;5.68;;;;;;;-10.85;58.48;99468.19;4811604;29;20110;-79
2022/03/08 00:57:55;;;;;;;17.60;5.95;;;;;;;-10.80;58.91;99474.25;4826358;29;20061;-79
2022/03/08 01:00:24;;;;;;;12.93;6.75;;;;;;;-10.62;58.64;99471.78;4826970;29;20452;-80
2022/03/08 01:02:50;;;;;;;15.73;7.40;;;;;;;-10.66;58.35;99454.56;4826532;29;20190;-81
2022/03/08 01:05:17;;;;;;;14.98;6.47;;;;;;;-10.61;58.38;99472.66;4815238;29;20214;-79
2022/03/08 01:07:44;;;;;;;17.33;7.32;;;;;;;-10.47;58.47;99483.09;4861010;29;20115;-80
2022/03/08 01:10:15;;;;;;;19.95;6.95;;;;;;;-10.34;58.36;99469.38;4814165;29;20064;-79
2022/03/08 01:12:42;;;;;;;15.75;7.90;;;;;;;-10.26;58.19;99470.31;4826291;29;20190;-79
2022/03/08 01:15:09;;;;;;;13.90;5.40;;;;;;;-10.16;57.84;99482.38;4826413;29;20134;-80
2022/03/08 01:17:37;;;;;;;14.48;5.78;;;;;;;-10.15;57.65;99468.63;4811018;29;20099;-82
2022/03/08 01:20:05;;;;;;;10.80;5.53;;;;;;;-10.20;57.47;99467.69;4826225;29;20053;-80
2022/03/08 01:22:32;;;;;;;11.77;5.20;;;;;;;-10.19;57.24;99481.50;4811122;29;20148;-80
2022/03/08 01:24:58;;;;;;;10.18;5.43;;;;;;;-10.15;57.52;99467.75;4826076;29;20061;-80
2022/03/08 01:27:24;;;;;;;13.13;5.63;;;;;;;-10.12;57.51;99476.34;4810940;29;20106;-81
2022/03/08 01:29:50;;;;;;;11.35;5.50;;;;;;;-10.07;57.92;99482.44;4811111;29;20106;-80
2022/03/08 01:32:16;;;;;;;12.77;5.20;;;;;;;-10.00;57.76;99477.28;4842054;29;20058;-80
2022/03/08 01:34:44;;;;;;;15.15;6.82;;;;;;;-10.06;57.15;99484.16;4810871;29;20050;-80
2022/03/08 01:37:11;;;;;;;18.27;6.45;;;;;;;-10.07;57.16;99482.44;4825910;29;20050;-80
2022/03/08 01:39:37;;;;;;;12.80;5.32;;;;;;;-10.04;57.40;99472.13;4842094;29;20114;-79
2022/03/08 01:42:16;;;;;;;10.73;5.75;;;;;;;-9.97;57.28;99488.50;4810702;29;20062;-81
2022/03/08 01:44:44;;;;;;;11.07;5.47;;;;;;;-9.90;57.27;99494.56;4826078;29;20066;-79
2022/03/08 01:47:18;;;;;;;17.60;6.20;;;;;;;-9.94;57.11;99500.59;4825594;29;20087;-81
2022/03/08 01:49:45;;;;;;;16.35;6.63;;;;;;;-9.96;57.33;99504.91;4795934;29;20399;-79
2022/03/08 01:52:11;;;;;;;11.07;6.35;;;;;;;-9.97;57.07;99500.56;4810770;29;20058;-79
2022/03/08 01:54:37;;;;;;;15.55;6.47;;;;;;;-10.00;57.87;99508.28;4825624;29;20049;-80
2022/03/08 01:57:05;;;;;;;15.75;6.57;;;;;;;-10.08;58.12;99508.25;4810923;29;20110;-79
2022/03/08 01:59:31;;;;;;;11.88;6.55;;;;;;;-10.14;58.12;99503.94;4825990;29;20455;-79
2022/03/08 02:01:57;;;;;;;13.00;6.60;;;;;;;-10.10;58.04;99504.81;4840616;29;20096;-81
2022/03/08 02:04:24;;;;;;;18.65;7.38;;;;;;;-10.04;58.33;99507.41;4842174;29;20058;-79
2022/03/08 02:06:50;;;;;;;19.02;7.97;;;;;;;-10.03;57.94;99491.94;4810694;29;20060;-80
2022/03/08 02:09:16;;;;;;;27.90;7.28;;;;;;;-9.90;58.06;99497.16;4825889;29;20061;-82
2022/03/08 02:11:42;;;;;;;14.70;7.03;;;;;;;-9.95;57.77;99491.09;4825573;29;20069;-80
2022/03/08 02:14:08;;;;;;;17.35;7.03;;;;;;;-9.91;57.92;99492.84;4841852;29;20089;-80
2022/03/08 02:16:34;;;;;;;18.20;6.90;;;;;;;-9.91;57.97;99504.06;4825666;29;20555;-80
2022/03/08 02:19:00;;;;;;;15.07;6.20;;;;;;;-9.93;57.84;99510.06;4842294;29;20050;-79
2022/03/08 02:21:26;;;;;;;15.23;6.03;;;;;;;-9.89;58.06;99498.88;4828449;29;20067;-79
2022/03/08 02:23:52;;;;;;;18.25;7.28;;;;;;;-9.88;58.15;99503.22;4854036;29;20533;-80
2022/03/08 02:26:21;;;;;;;19.88;7.53;;;;;;;-9.88;58.37;99498.91;4834963;29;20534;-79
2022/03/08 02:28:47;;;;;;;;;;;;;;;-9.74;58.13;99505.84;4842584;29;20077;-79
2022/03/08 02:31:17;;;;;;;17.35;8.25;;;;;;;-9.89;58.23;99517.88;4840692;29;20400;-80
2022/03/08 02:33:44;;;;;;;30.50;8.25;;;;;;;-9.78;58.46;99512.72;4811009;29;20438;-79
2022/03/08 02:36:10;;;;;;;32.80;9.00;;;;;;;-9.69;58.29;99511.91;4841703;29;20482;-81
2022/03/08 02:38:37;;;;;;;24.83;8.30;;;;;;;-9.63;58.47;99505.00;4810231;29;20069;-80
2022/03/08 02:41:02;;;;;;;22.45;9.32;;;;;;;-9.59;58.38;99517.13;4842116;29;20175;-81
2022/03/08 02:43:28;;;;;;;19.23;8.93;;;;;;;-9.54;58.05;99518.00;4825664;29;20054;-83
2022/03/08 02:45:54;;;;;;;33.53;8.85;;;;;;;-9.45;58.31;99521.47;4844805;29;20054;-81
2022/03/08 02:48:24;;;;;;;25.35;8.50;;;;;;;-9.52;57.95;99517.13;4828730;29;20058;-81
2022/03/08 02:50:50;;;;;;;30.23;9.02;;;;;;;-9.40;58.30;99517.16;4845173;29;20053;-82
2022/03/08 02:53:16;;;;;;;22.65;8.57;;;;;;;-9.41;58.22;99510.25;4828724;29;20161;-81
2022/03/08 02:55:41;;;;;;;18.85;7.78;;;;;;;-9.35;57.91;99525.81;4828492;29;20050;-81
2022/03/08 02:58:07;;;;;;;37.95;8.32;;;;;;;-9.42;58.18;99514.59;4844767;29;20057;-81
2022/03/08 03:00:34;;;;;;;20.67;8.35;;;;;;;-9.42;58.07;99521.50;4828835;29;20068;-83
2022/03/08 03:03:00;;;;;;;22.77;7.55;;;;;;;-9.44;58.22;99516.31;4828374;29;20137;-82
2022/03/08 03:05:26;;;;;;;22.90;7.60;;;;;;;-9.53;58.24;99521.44;4844827;29;20585;-83
2022/03/08 03:07:52;;;;;;;18.05;7.25;;;;;;;-9.44;58.24;99525.78;4813072;29;20068;-81
2022/03/08 03:10:21;;;;;;;13.02;6.28;;;;;;;-9.30;57.92;99518.94;4812977;29;20149;-81
2022/03/08 03:12:47;;;;;;;15.15;7.47;;;;;;;-9.27;57.77;99529.28;4845017;29;20153;-80
2022/03/08 03:15:15;;;;;;;23.48;7.88;;;;;;;-9.43;57.69;99522.34;4828494;29;20118;-81
2022/03/08 03:17:42;;;;;;;14.35;6.85;;;;;;;-9.50;58.05;99507.66;4798154;29;20452;-78
2022/03/08 03:20:10;;;;;;;36.35;8.98;;;;;;;-9.41;58.68;99523.22;4828197;29;20057;-80
2022/03/08 03:22:37;;;;;;;30.88;8.25;;;;;;;-9.27;58.26;99526.72;4797955;29;20485;-80
2022/03/08 03:25:03;;;;;;;29.60;7.78;;;;;;;-9.14;58.18;99528.47;4823969;29;20531;-85
2022/03/08 03:27:30;;;;;;;23.38;8.02;;;;;;;-9.01;57.73;99525.91;4848157;29;20054;-81
2022/03/08 03:29:56;;;;;;;15.50;6.82;;;;;;;-8.95;57.58;99524.19;4817154;29;20500;-81
2022/03/08 03:32:23;;;;;;;38.90;6.05;;;;;;;-9.00;57.44;99522.44;4828047;29;20117;-82
2022/03/08 03:34:49;;;;;;;17.27;6.55;;;;;;;-8.97;57.28;99522.44;4848795;29;20145;-80
2022/03/08 03:37:15;;;;;;;13.60;5.75;;;;;;;-9.16;57.55;99516.38;4833010;29;20092;-80
2022/03/08 03:39:41;;;;;;;15.25;5.97;;;;;;;-9.18;57.59;99520.69;4827510;29;20474;-87
2022/03/08 03:42:07;;;;;;;17.88;6.75;;;;;;;-9.18;57.78;99526.72;4809701;29;20053;-84
2022/03/08 03:44:33;;;;;;;30.25;6.25;;;;;;;-9.05;58.00;99530.22;4846802;29;20163;-83
2022/03/08 03:46:59;;;;;;;15.45;6.03;;;;;;;-8.96;58.08;99524.16;4830708;29;20059;-82
2022/03/08 03:49:25;;;;;;;13.63;5.40;;;;;;;-8.79;57.57;99532.84;4831035;29;20569;-84
2022/03/08 03:51:51;;;;;;;13.10;5.72;;;;;;;-8.70;57.60;99531.97;4849292;29;20144;-81
2022/03/08 03:54:18;;;;;;;11.35;5.13;;;;;;;-8.59;57.43;99531.09;4817679;29;20117;-79
2022/03/08 03:56:44;;;;;;;13.60;6.20;;;;;;;-8.49;57.91;99525.94;4863668;29;20062;-88
2022/03/08 03:59:11;;;;;;;15.10;6.65;;;;;;;-8.39;57.61;99523.31;4827783;29;20078;-88
2022/03/08 04:01:37;;;;;;;26.67;6.85;;;;;;;-8.33;56.86;99540.56;4827282;29;20057;-82
2022/03/08 04:04:03;;;;;;;10.82;6.00;;;;;;;-8.19;56.85;99540.56;4827452;29;20050;-89
2022/03/08 04:06:30;;;;;;;13.40;6.03;;;;;;;-7.97;56.60;99541.34;4827509;29;20093;-85
2022/03/08 04:08:56;;;;;;;14.20;6.22;;;;;;;-7.82;56.07;99551.72;4818448;29;20068;-79
2022/03/08 04:11:21;;;;;;;18.85;6.28;;;;;;;-7.75;56.28;99540.44;4846868;29;20062;-79
2022/03/08 04:13:47;;;;;;;37.90;7.65;;;;;;;-7.68;55.75;99543.88;4828268;29;20526;-83
2022/03/08 04:16:13;;;;;;;26.58;7.32;;;;;;;-7.64;55.91;99546.44;4802737;29;20053;-84
2022/03/08 04:18:40;;;;;;;10.70;5.38;;;;;;;-7.51;55.77;99547.28;4828420;29;20061;-92
2022/03/08 04:21:05;;;;;;;17.17;6.28;;;;;;;-7.46;55.57;99531.69;4813746;29;20112;-87
2022/03/08 04:23:32;;;;;;;14.88;5.80;;;;;;;-7.31;55.01;99549.78;4858106;29;20061;-80
2022/03/08 04:25:57;;;;;;;13.25;5.65;;;;;;;-7.16;55.06;99559.25;4861465;29;20425;-87
2022/03/08 04:28:23;;;;;;;17.40;6.43;;;;;;;-7.02;54.62;99559.19;4825493;29;20057;-84
2022/03/08 04:30:49;;;;;;;15.38;6.25;;;;;;;-6.89;54.64;99568.59;4812316;29;20510;-83
2022/03/08 04:33:15;;;;;;;18.02;7.07;;;;;;;-6.80;54.30;99568.56;4844527;29;20062;-92
2022/03/08 04:35:41;;;;;;;14.10;7.25;;;;;;;-6.66;54.29;99576.25;4827470;29;20505;-89
2022/03/08 04:38:08;;;;;;;10.98;6.20;;;;;;;-6.56;54.11;99577.94;4858630;29;20129;-82
2022/03/08 04:40:34;;;;;;;15.50;7.18;;;;;;;-6.39;54.16;99577.81;4843113;29;20506;-81
2022/03/08 04:43:00;;;;;;;21.20;7.22;;;;;;;-6.33;53.89;99567.34;4811702;29;20062;-79
2022/03/08 04:45:26;;;;;;;14.68;6.13;;;;;;;-6.15;53.59;99580.19;4854621;29;20060;-92
2022/03/08 04:47:52;;;;;;;17.98;6.70;;;;;;;-6.05;52.92;99580.13;4820958;29;20068;-90
2022/03/08 04:50:18;;;;;;;14.75;7.05;;;;;;;-5.93;52.92;99575.66;4858553;29;20053;-91
2022/03/08 04:52:47;;;;;;;17.48;6.25;;;;;;;-5.72;52.69;99590.16;4845884;29;20054;-82
2022/03/08 04:55:15;;;;;;;17.55;7.07;;;;;;;-5.62;52.39;99589.19;4826418;29;20145;-78
2022/03/08 04:57:40;;;;;;;21.33;7.30;;;;;;;-5.73;52.09;99593.63;4842333;29;20096;-84
2022/03/08 05:00:11;;;;;;;13.70;6.72;;;;;;;-5.75;52.71;99579.78;4795812;29;20085;-84
2022/03/08 05:02:41;;;;;;;19.00;6.18;;;;;;;-5.29;52.28;99600.13;4830214;29;20585;-77
2022/03/08 05:05:10;;;;;;;16.40;6.78;;;;;;;-5.20;51.58;99594.78;4828957;29;20433;-82
2022/03/08 05:07:37;;;;;;;15.43;7.00;;;;;;;-5.04;51.30;99602.41;4844432;29;20079;-80
2022/03/08 05:10:08;;;;;;;15.85;6.72;;;;;;;-4.95;51.06;99599.69;4829713;29;20109;-83
2022/03/08 05:12:35;;;;;;;13.35;6.75;;;;;;;-4.99;50.73;99595.41;4844820;29;20053;-81
2022/03/08 05:15:02;;;;;;;15.80;7.25;;;;;;;-5.20;51.02;99607.81;4862111;29;20506;-85
2022/03/08 05:17:29;;;;;;;13.13;6.22;;;;;;;-5.19;51.65;99611.28;4814301;29;20467;-79
2022/03/08 05:19:54;;;;;;;18.17;7.03;;;;;;;-5.15;51.63;99605.16;4829829;29;20057;-81
2022/03/08 05:22:20;;;;;;;14.10;6.78;;;;;;;-4.98;50.99;99615.38;4850372;29;20626;-84
2022/03/08 05:24:46;;;;;;;10.32;5.88;;;;;;;-5.00;50.95;99614.50;4835675;29;20086;-82
2022/03/08 05:27:12;;;;;;;32.88;7.18;;;;;;;-5.06;51.03;99607.66;4837466;29;20513;-82
2022/03/08 05:29:38;;;;;;;14.35;6.75;;;;;;;-4.91;50.76;99622.22;4829967;29;20089;-88
2022/03/08 05:32:04;;;;;;;14.40;7.05;;;;;;;-4.97;51.09;99627.50;4812247;29;20502;-85
2022/03/08 05:34:30;;;;;;;14.05;7.80;;;;;;;-4.84;50.80;99628.25;4816133;29;20049;-85
2022/03/08 05:36:56;;;;;;;22.13;8.07;;;;;;;-5.04;51.13;99628.47;4849176;29;20129;-80
2022/03/08 05:39:22;;;;;;;20.10;8.15;;;;;;;-4.94;51.21;99633.56;4850159;29;20057;-82
2022/03/08 05:41:49;;;;;;;27.42;7.78;;;;;;;-4.89;51.11;99641.31;4810334;29;20094;-88
2022/03/08 05:44:15;;;;;;;13.90;7.20;;;;;;;-4.89;50.87;99647.41;4825152;29;20145;-82
2022/03/08 05:46:41;;;;;;;11.73;7.28;;;;;;;-4.75;50.58;99642.00;4833600;29;20422;-85
2022/03/08 05:49:07;;;;;;;15.48;7.10;;;;;;;-4.67;50.73;99642.75;4802624;29;20061;-82
2022/03/08 05:51:34;;;;;;;14.23;6.75;;;;;;;-4.81;50.82;99644.72;4849173;29;20046;-87
2022/03/08 05:54:00;;;;;;;16.38;6.80;;;;;;;-4.91;51.07;99643.09;4811029;29;20050;-87
2022/03/08 05:56:26;;;;;;;14.43;7.32;;;;;;;-5.04;51.66;99641.50;4836464;29;20145;-86
2022/03/08 05:58:53;;;;;;;21.80;7.43;;;;;;;-4.80;50.83;99641.22;4849917;29;20061;-87
2022/03/08 06:01:18;;;;;;;15.25;7.57;;;;;;;-4.68;51.08;99648.00;4836003;29;20092;-82
2022/03/08 06:03:44;;;;;;;20.75;8.15;;;;;;;-4.56;50.79;99639.16;4850483;29;20178;-85
2022/03/08 06:06:11;;;;;;;17.33;7.82;;;;;;;-4.23;50.42;99638.66;4819529;29;20519;-86
2022/03/08 06:08:37;;;;;;;13.00;7.60;;;;;;;-3.96;49.75;99628.66;4853768;29;20053;-82
2022/03/08 06:11:04;;;;;;;18.80;7.57;;;;;;;-3.66;49.47;99633.34;4853786;29;20045;-83
2022/03/08 06:13:31;;;;;;;14.77;8.13;;;;;;;-3.46;49.01;99627.78;4847767;29;20075;-81
2022/03/08 06:15:57;;;;;;;16.00;8.23;;;;;;;-3.38;49.20;99635.47;4843041;29;20062;-82
2022/03/08 06:18:23;;;;;;;24.40;9.55;;;;;;;-3.35;49.01;99624.94;4856238;29;20088;-84
2022/03/08 06:20:49;;;;;;;37.53;12.38;;;;;;;-3.55;48.48;99621.84;4847564;29;20049;-87
2022/03/08 06:23:14;;;;;;;32.92;11.57;;;;;;;-3.49;48.52;99630.44;4842905;29;20429;-84
2022/03/08 06:25:40;;;;;;;29.60;9.73;;;;;;;-3.51;48.29;99634.81;4831604;29;20077;-89
2022/03/08 06:28:06;;;;;;;25.08;12.02;;;;;;;-3.43;48.29;99621.59;4842614;29;20069;-89
2022/03/08 06:30:33;;;;;;;24.17;10.20;;;;;;;-3.37;48.30;99611.03;4856008;29;20061;-86
2022/03/08 06:32:59;;;;;;;20.63;12.57;;;;;;;-3.09;48.26;99620.94;4859533;29;20064;-91
2022/03/08 06:35:26;;;;;;;39.47;16.92;;;;;;;-2.92;47.54;99618.84;4827113;29;20060;-86
2022/03/08 06:37:51;;;;;;;61.58;23.25;;;;;;;-2.58;47.34;99633.84;4841819;29;20057;-88
2022/03/08 06:40:17;;;;;;;139.05;48.97;;;;;;;-2.35;46.36;99630.69;4822877;29;20053;-87
2022/03/08 06:42:44;;;;;;;199.30;66.80;;;;;;;-2.25;46.34;99621.75;4824196;29;20175;-78
2022/03/08 06:45:10;;;;;;;179.00;64.25;;;;;;;-2.04;46.38;99628.22;4845030;29;20147;-80
2022/03/08 06:47:38;;;;;;;154.93;56.70;;;;;;;-1.62;46.07;99630.66;4843369;29;20478;-86
2022/03/08 06:50:05;;;;;;;130.05;50.95;;;;;;;-1.69;44.98;99616.88;4832617;29;20076;-81
2022/03/08 06:52:31;;;;;;;203.57;73.18;;;;;;;-2.12;44.88;99628.41;4813900;29;20086;-87
2022/03/08 06:54:57;;;;;;;187.35;65.57;;;;;;;-2.28;45.57;99627.91;4837954;29;20081;-89
2022/03/08 06:57:24;;;;;;;125.35;48.17;;;;;;;-2.50;44.97;99629.28;4852195;29;20059;-88
2022/03/08 06:59:50;;;;;;;106.50;43.35;;;;;;;-2.80;45.73;99643.91;4845952;29;20480;-94
2022/03/08 07:02:16;;;;;;;122.10;48.92;;;;;;;-2.72;46.67;99636.75;4842641;29;20050;-83
2022/03/08 07:04:42;;;;;;;159.93;63.22;;;;;;;-2.27;46.05;99634.84;4830107;29;20054;-92
2022/03/08 07:07:08;;;;;;;120.78;46.13;;;;;;;-1.86;45.11;99625.13;4814423;29;20110;-87
2022/03/08 07:09:34;;;;;;;88.97;41.10;;;;;;;-1.59;44.27;99627.94;4845256;29;20049;-85
2022/03/08 07:12:00;;;;;;;95.35;39.65;;;;;;;-1.87;43.37;99626.03;4851080;29;20498;-82
2022/03/08 07:14:26;;;;;;;86.85;36.53;;;;;;;-2.62;43.47;99638.28;4829848;29;20528;-85
2022/03/08 07:16:52;;;;;;;81.35;38.58;;;;;;;-2.89;43.81;99638.88;4845736;29;20135;-86
2022/03/08 07:19:18;;;;;;;73.63;37.03;;;;;;;-2.84;43.94;99632.63;4816366;29;20057;-83
2022/03/08 07:21:45;;;;;;;96.97;43.20;;;;;;;-2.68;44.67;99627.94;4862438;29;20565;-83
2022/03/08 07:24:15;;;;;;;89.13;43.05;;;;;;;-3.07;45.13;99630.50;4845066;29;20061;-84
2022/03/08 07:26:41;;;;;;;88.88;42.30;;;;;;;-3.06;44.44;99626.13;4839599;29;20056;-82
2022/03/08 07:29:07;;;;;;;88.75;41.10;;;;;;;-3.19;45.51;99629.00;4816696;29;20045;-82
2022/03/08 07:31:36;;;;;;;64.85;32.75;;;;;;;-3.70;46.06;99622.97;4837229;29;20057;-84
2022/03/08 07:34:02;;;;;;;108.35;40.13;;;;;;;-3.61;46.15;99635.00;4862304;29;20062;-83
2022/03/08 07:36:29;;;;;;;80.28;41.65;;;;;;;-2.95;46.54;99639.84;4862147;29;20088;-83
2022/03/08 07:38:55;;;;;;;84.50;39.00;;;;;;;-2.81;45.61;99631.72;4846459;29;20420;-82
2022/03/08 07:41:21;;;;;;;83.03;38.88;;;;;;;-3.49;45.71;99632.19;4862710;29;20136;-86
2022/03/08 07:43:49;;;;;;;88.97;39.38;;;;;;;-3.85;47.36;99621.50;4830769;29;20417;-85
2022/03/08 07:46:15;;;;;;;73.47;34.15;;;;;;;-3.98;47.85;99631.28;4862433;29;20569;-83
2022/03/08 07:48:43;;;;;;;58.40;31.27;;;;;;;-4.58;49.08;99639.19;4845734;29;20525;-84
2022/03/08 07:51:09;;;;;;;77.35;35.17;;;;;;;-4.42;48.88;99638.06;4830641;29;20058;-84
2022/03/08 07:53:35;;;;;;;77.25;33.88;;;;;;;-4.29;49.14;99632.66;4830031;29;20049;-82
2022/03/08 07:56:04;;;;;;;76.18;36.67;;;;;;;-3.98;49.08;99644.34;4845224;29;20046;-82
2022/03/08 07:58:31;;;;;;;67.05;33.55;;;;;;;-4.25;48.77;99637.81;4830394;29;20057;-82
2022/03/08 08:00:57;;;;;;;52.97;27.05;;;;;;;-4.34;48.61;99643.16;4845441;29;20072;-83
2022/03/08 08:03:23;;;;;;;68.95;35.17;;;;;;;-4.40;48.61;99638.03;4845372;29;20137;-83
2022/03/08 08:05:49;;;;;;;67.88;35.83;;;;;;;-4.26;48.50;99635.22;4861906;29;20106;-83
2022/03/08 08:08:15;;;;;;;68.97;35.15;;;;;;;-4.22;48.32;99640.34;4829617;29;20602;-84
2022/03/08 08:10:41;;;;;;;73.70;38.00;;;;;;;-4.07;48.97;99641.00;4845321;29;20425;-85
2022/03/08 08:13:07;;;;;;;81.88;37.60;;;;;;;-4.16;48.93;99635.06;4862132;29;20136;-83
2022/03/08 08:15:36;;;;;;;71.53;38.10;;;;;;;-4.00;48.74;99642.63;4830156;29;20054;-83
2022/03/08 08:18:05;;;;;;;73.93;39.50;;;;;;;-3.73;48.61;99633.47;4861930;29;20114;-83
2022/03/08 08:20:32;;;;;;;80.80;39.97;;;;;;;-3.40;48.02;99628.53;4845171;29;20053;-83
2022/03/08 08:22:58;;;;;;;79.45;37.35;;;;;;;-3.33;47.37;99623.16;4844935;29;20433;-83
2022/03/08 08:25:24;;;;;;;77.18;36.53;;;;;;;-3.49;47.48;99617.38;4845274;29;20133;-83
2022/03/08 08:27:50;;;;;;;72.15;38.60;;;;;;;-3.43;47.79;99624.22;4844858;29;20412;-82
2022/03/08 08:30:18;;;;;;;63.72;37.63;;;;;;;-2.78;47.49;99627.28;4861516;29;20172;-81
2022/03/08 08:32:44;;;;;;;70.47;39.88;;;;;;;-2.17;47.21;99625.03;4861953;29;20156;-83
2022/03/08 08:35:13;;;;;;;66.00;33.55;;;;;;;-1.67;44.96;99629.91;4861308;29;20427;-84
2022/03/08 08:37:39;;;;;;;65.40;36.25;;;;;;;-1.69;45.60;99631.69;4844739;29;20094;-86
2022/03/08 08:40:06;;;;;;;64.93;35.42;;;;;;;-1.75;45.21;99630.97;4845098;29;20470;-85
2022/03/08 08:42:32;;;;;;;57.65;31.88;;;;;;;-2.20;44.94;99641.66;4844128;29;20152;-81
2022/03/08 08:44:58;;;;;;;76.07;35.33;;;;;;;-2.22;45.65;99643.47;4861286;29;20057;-83
2022/03/08 08:47:25;;;;;;;64.03;33.50;;;;;;;-2.64;46.43;99644.44;4844937;29;20085;-84
2022/03/08 08:49:51;;;;;;;59.50;33.05;;;;;;;-2.39;45.96;99653.47;4844805;29;20057;-83
2022/03/08 08:52:17;;;;;;;54.03;30.50;;;;;;;-2.72;46.54;99652.44;4861089;29;20453;-83
2022/03/08 08:54:43;;;;;;;57.25;30.13;;;;;;;-3.05;47.16;99648.75;4830321;29;20056;-84
2022/03/08 08:57:09;;;;;;;61.70;30.48;;;;;;;-3.15;47.55;99642.88;4844808;29;20053;-83
2022/03/08 08:59:34;;;;;;;70.78;31.10;;;;;;;-3.18;48.18;99640.31;4829747;29;20054;-84
2022/03/08 09:02:01;;;;;;;69.43;33.15;;;;;;;-3.29;48.65;99644.88;4829608;29;20068;-85
2022/03/08 09:04:26;;;;;;;83.55;40.38;;;;;;;-2.65;48.07;99637.47;4845513;29;20129;-85
2022/03/08 09:06:52;;;;;;;78.97;37.72;;;;;;;-2.50;47.49;99637.13;4847031;29;20058;-84
2022/03/08 09:09:18;;;;;;;75.20;37.72;;;;;;;-2.41;47.29;99636.91;4848805;29;20045;-83
2022/03/08 09:11:45;;;;;;;91.55;39.70;;;;;;;-1.88;46.52;99642.69;4847028;29;20053;-83
2022/03/08 09:14:11;;;;;;;79.70;37.08;;;;;;;-1.64;46.38;99635.09;4845622;29;20056;-84
2022/03/08 09:16:37;;;;;;;66.28;33.95;;;;;;;-1.43;45.88;99638.88;4862019;29;20057;-84
2022/03/08 09:19:03;;;;;;;72.30;32.92;;;;;;;-0.82;44.58;99632.81;4814926;29;20049;-86
2022/03/08 09:21:29;;;;;;;67.40;35.10;;;;;;;-0.46;44.14;99631.75;4862128;29;20079;-84
2022/03/08 09:23:55;;;;;;;70.05;35.35;;;;;;;-0.21;43.60;99634.50;4861675;29;20152;-83
2022/03/08 09:26:21;;;;;;;67.38;34.92;;;;;;;-0.03;43.53;99639.16;4861279;29;20057;-83
2022/03/08 09:28:47;;;;;;;73.18;33.58;;;;;;;0.12;42.96;99627.31;4844182;29;20089;-84
2022/03/08 09:31:14;;;;;;;57.75;30.38;;;;;;;0.37;42.65;99622.91;4861219;29;20060;-91
2022/03/08 09:33:41;;;;;;;58.30;29.00;;;;;;;0.74;42.43;99621.66;4815635;29;20208;-84
2022/03/08 09:36:07;;;;;;;59.70;28.90;;;;;;;0.80;42.09;99625.84;4844114;29;20117;-84
2022/03/08 09:38:33;;;;;;;49.88;28.38;;;;;;;1.16;41.66;99624.47;4814155;29;20057;-82
2022/03/08 09:41:02;;;;;;;55.20;28.15;;;;;;;1.25;41.15;99611.91;4843920;29;20501;-84
2022/03/08 09:43:29;;;;;;;61.90;27.95;;;;;;;1.05;41.49;99616.13;4829265;29;20130;-83
2022/03/08 09:45:55;;;;;;;64.30;29.50;;;;;;;1.30;41.61;99616.06;4828730;29;20447;-81
2022/03/08 09:48:21;;;;;;;57.42;29.80;;;;;;;1.03;40.87;99603.97;4810517;29;20531;-80
2022/03/08 09:50:47;;;;;;;60.28;29.92;;;;;;;0.77;41.82;99608.38;4831374;29;20144;-82
2022/03/08 09:53:13;;;;;;;66.28;31.50;;;;;;;0.72;42.08;99605.06;4823253;29;20064;-82
2022/03/08 09:55:39;;;;;;;50.42;26.83;;;;;;;0.70;41.77;99605.09;4837066;29;20061;-82
2022/03/08 09:58:05;;;;;;;53.92;23.60;;;;;;;0.41;41.68;99613.16;4839119;29;20054;-82
2022/03/08 10:00:32;;;;;;;54.28;26.73;;;;;;;0.37;43.14;99606.28;4840788;29;20148;-82
2022/03/08 10:02:59;;;;;;;37.60;23.95;;;;;;;0.30;42.94;99597.78;4836461;29;20053;-86
2022/03/08 10:05:37;;;;;;;41.03;22.23;;;;;;;0.37;43.00;99606.28;4822131;29;20073;-81
2022/03/08 10:08:13;;;;;;;39.13;22.15;;;;;;;0.55;42.73;99604.78;4830387;29;20091;-83
2022/03/08 10:10:50;;;;;;;41.95;22.70;;;;;;;0.50;43.12;99594.44;4800337;29;20467;-89
2022/03/08 10:13:18;;;;;;;40.50;21.17;;;;;;;0.17;42.05;99601.72;4846010;29;20070;-79
2022/03/08 10:15:44;;;;;;;54.55;21.17;;;;;;;-0.26;43.39;99601.34;4830267;29;20107;-84
2022/03/08 10:18:10;;;;;;;49.33;20.58;;;;;;;-0.39;44.16;99602.63;4830692;29;20061;-88
2022/03/08 10:20:36;;;;;;;35.83;19.45;;;;;;;0.14;43.86;99602.66;4815395;29;20049;-86
2022/03/08 10:23:12;;;;;;;38.28;19.63;;;;;;;0.43;43.77;99601.69;4844839;29;20142;-83
2022/03/08 10:25:38;;;;;;;31.25;18.17;;;;;;;0.50;42.66;99598.84;4814625;29;20054;-85
2022/03/08 10:28:05;;;;;;;38.15;17.85;;;;;;;-0.15;44.64;99605.38;4815060;29;20058;-84
2022/03/08 10:30:43;;;;;;;50.33;16.52;;;;;;;-0.14;44.03;99604.50;4829059;29;20057;-82
2022/03/08 10:33:10;;;;;;;37.65;16.05;;;;;;;-0.09;43.70;99616.56;4813806;29;20053;-84
2022/03/08 10:35:41;;;;;;;30.63;14.68;;;;;;;-0.38;44.52;99606.13;4798115;29;20245;-85
2022/03/08 10:38:14;;;;;;;31.23;15.13;;;;;;;-0.60;45.14;99612.03;4827666;29;20053;-87
2022/03/08 10:40:41;;;;;;;;;;;;;;;-0.83;46.07;99610.13;4814462;29;20522;-86
2022/03/08 10:43:10;;;;;;;38.78;15.35;;;;;;;-0.86;46.23;99615.44;4830611;29;19972;-90
2022/03/08 10:45:40;;;;;;;27.52;12.00;;;;;;;-1.03;46.42;99618.53;4823785;29;20049;-86
2022/03/08 10:48:07;;;;;;;35.95;12.80;;;;;;;-0.93;46.46;99613.91;4826731;29;20057;-90
2022/03/08 10:50:36;;;;;;;23.38;12.13;;;;;;;-1.20;47.28;99618.16;4828680;29;20089;-90
2022/03/08 10:53:05;;;;;;;36.53;13.03;;;;;;;-1.20;47.66;99620.78;4831223;29;20045;-89
2022/03/08 10:55:33;;;;;;;28.10;15.00;;;;;;;-1.12;47.29;99618.81;4809732;29;20590;-82
2022/03/08 10:58:14;;;;;;;31.42;13.30;;;;;;;-1.05;47.85;99606.38;4828186;29;20054;-89
2022/03/08 11:00:51;;;;;;;27.63;12.20;;;;;;;-0.89;47.85;99615.53;4851990;29;20466;-87
2022/03/08 11:03:20;;;;;;;33.22;13.20;;;;;;;-0.89;47.75;99605.03;4814623;29;20117;-91
2022/03/08 11:05:50;;;;;;;37.40;12.15;;;;;;;-0.98;48.33;99616.66;4826791;29;20089;-87
2022/03/08 11:08:17;;;;;;;39.92;12.48;;;;;;;-1.18;48.70;99612.88;4864342;29;20148;-91
2022/03/08 11:10:44;;;;;;;26.65;12.13;;;;;;;-1.45;49.67;99607.47;4835082;29;20050;-89
2022/03/08 11:13:12;;;;;;;24.38;12.45;;;;;;;-1.48;49.60;99610.19;4831430;29;20086;-87
2022/03/08 11:15:39;;;;;;;26.98;12.88;;;;;;;-1.52;50.10;99619.03;4831592;29;20053;-87
2022/03/08 11:18:09;;;;;;;30.35;13.82;;;;;;;-1.44;49.81;99621.44;4846944;29;20574;-89
2022/03/08 11:20:36;;;;;;;27.52;13.23;;;;;;;-1.38;49.66;99616.91;4816334;29;20049;-89